Time;durP1;ratioP1;P1;durP2;ratioP2;P2;SDS_P1;SDS_P2;PMS_P1;PMS_P2;Temp;Humidity;BMP_temperature;BMP_pressure;BME280_temperature;BME280_humidity;BME280_pressure;Samples;Min_cycle;Max_cycle;Signal;HPM_P1;HPM_P2
2022/09/09 00:00:30;;;;;;;65.93;34.42;;;;;;;16.59;100.00;97846.41;4891900;29;20120;-86
2022/09/09 00:03:28;;;;;;;69.20;35.05;;;;;;;16.75;100.00;97861.28;4891356;29;20085;-86
2022/09/09 00:06:08;;;;;;;80.00;37.47;;;;;;;16.68;100.00;97856.22;4891111;29;20045;-86
2022/09/09 00:08:45;;;;;;;77.82;36.45;;;;;;;16.69;100.00;97863.13;4889503;29;20060;-86
2022/09/09 00:11:15;;;;;;;72.53;35.33;;;;;;;16.72;100.00;97861.03;4871763;29;20476;-85
2022/09/09 00:13:47;;;;;;;83.45;38.00;;;;;;;16.57;100.00;97849.34;4871777;29;20033;-85
2022/09/09 00:16:22;;;;;;;78.85;37.25;;;;;;;16.76;100.00;97867.38;4892197;29;20032;-85
2022/09/09 00:19:09;;;;;;;83.78;38.33;;;;;;;16.83;100.00;97863.41;4892790;29;20080;-86
2022/09/09 00:21:52;;;;;;;81.85;39.25;;;;;;;16.81;100.00;97862.06;4881889;29;20087;-86
2022/09/09 00:24:30;;;;;;;74.63;35.00;;;;;;;16.76;100.00;97851.47;4896034;29;20379;-86
2022/09/09 00:27:20;;;;;;;81.00;36.60;;;;;;;16.75;100.00;97866.56;4911291;29;20093;-85
2022/09/09 00:30:11;;;;;;;84.20;38.58;;;;;;;16.67;100.00;97864.47;4908144;29;20099;-86
2022/09/09 00:32:37;;;;;;;79.45;37.70;;;;;;;16.70;100.00;97864.72;4893988;29;20042;-85
2022/09/09 00:35:17;;;;;;;81.47;37.88;;;;;;;16.72;100.00;97855.72;4911416;29;20116;-86
2022/09/09 00:37:45;;;;;;;71.78;35.15;;;;;;;16.72;100.00;97866.31;4890342;29;20036;-86
2022/09/09 00:40:32;;;;;;;75.32;36.30;;;;;;;16.80;100.00;97855.19;4911945;29;20032;-87
2022/09/09 00:43:23;;;;;;;73.43;37.33;;;;;;;16.81;100.00;97870.03;4882581;29;20064;-86
2022/09/09 00:46:18;;;;;;;65.50;34.88;;;;;;;16.78;100.00;97865.25;4888176;29;20040;-86
2022/09/09 00:49:01;;;;;;;69.35;36.05;;;;;;;16.79;100.00;97866.84;4909032;29;20028;-86
2022/09/09 00:52:04;;;;;;;74.55;37.03;;;;;;;16.77;100.00;97863.66;4908243;29;20052;-86
2022/09/09 00:54:33;;;;;;;78.67;36.83;;;;;;;16.63;100.00;97869.47;4909363;29;20115;-85
2022/09/09 00:57:05;;;;;;;67.32;35.13;;;;;;;16.61;100.00;97865.53;4903832;29;20286;-85
2022/09/09 00:59:45;;;;;;;79.68;37.70;;;;;;;16.72;100.00;97861.03;4910630;29;20040;-86
2022/09/09 01:02:25;;;;;;;75.78;36.80;;;;;;;16.72;100.00;97866.31;4909524;29;20121;-85
2022/09/09 01:04:50;;;;;;;78.63;36.15;;;;;;;16.64;100.00;97860.47;4906910;29;20032;-86
2022/09/09 01:07:18;;;;;;;79.03;35.35;;;;;;;16.63;100.00;97858.88;4906793;29;20557;-86
2022/09/09 01:09:58;;;;;;;74.68;37.88;;;;;;;16.68;100.00;97868.69;4875599;29;20044;-88
2022/09/09 01:12:25;;;;;;;72.85;35.38;;;;;;;16.63;100.00;97860.75;4907943;29;20080;-87
2022/09/09 01:14:58;;;;;;;73.32;35.25;;;;;;;16.70;100.00;97858.63;4888194;29;20055;-87
2022/09/09 01:17:36;;;;;;;72.20;34.40;;;;;;;16.73;100.00;97854.66;4908630;29;20047;-86
2022/09/09 01:20:13;;;;;;;76.32;35.25;;;;;;;16.80;100.00;97857.84;4909651;29;20032;-87
2022/09/09 01:23:14;;;;;;;80.50;36.42;;;;;;;16.77;100.00;97863.66;4894098;29;20068;-86
2022/09/09 01:26:10;;;;;;;75.55;35.80;;;;;;;16.73;100.00;97870.56;4876552;29;20052;-88
2022/09/09 01:28:36;;;;;;;78.28;36.38;;;;;;;16.74;100.00;97862.34;4892034;29;20029;-87
2022/09/09 01:31:05;;;;;;;75.70;34.15;;;;;;;16.66;100.00;97868.94;4903404;29;20044;-88
2022/09/09 01:33:31;;;;;;;74.97;34.13;;;;;;;16.72;100.00;97864.47;4888081;29;20036;-85
2022/09/09 01:36:15;;;;;;;70.25;33.42;;;;;;;16.78;100.00;97865.25;4886558;29;20040;-86
2022/09/09 01:38:41;;;;;;;78.32;33.40;;;;;;;16.65;100.00;97871.88;4888273;29;20033;-87
2022/09/09 01:41:06;;;;;;;68.10;33.17;;;;;;;16.65;100.00;97864.72;4887931;29;20368;-87
2022/09/09 01:43:32;;;;;;;71.82;32.58;;;;;;;16.70;100.00;97862.09;4885198;29;20037;-87
2022/09/09 01:46:01;;;;;;;68.80;33.08;;;;;;;16.73;100.00;97860.75;4890564;29;20029;-87
2022/09/09 01:48:27;;;;;;;74.03;32.90;;;;;;;16.74;100.00;97859.69;4887607;29;20025;-87
2022/09/09 01:50:53;;;;;;;70.30;31.58;;;;;;;16.78;100.00;97865.25;4869367;29;20032;-87
2022/09/09 01:53:21;;;;;;;73.40;32.60;;;;;;;16.77;100.00;97853.84;4903210;29;20041;-86
2022/09/09 01:56:03;;;;;;;74.75;33.17;;;;;;;16.78;100.00;97855.44;4889338;29;20033;-86
2022/09/09 01:58:47;;;;;;;74.00;31.88;;;;;;;16.75;100.00;97857.84;4890345;29;20044;-88
2022/09/09 02:01:36;;;;;;;72.13;30.85;;;;;;;16.71;100.00;97865.50;4886442;29;20161;-87
2022/09/09 02:04:11;;;;;;;66.80;31.30;;;;;;;16.70;100.00;97853.31;4872881;29;20120;-87
2022/09/09 02:06:40;;;;;;;74.80;31.35;;;;;;;16.77;100.00;97855.72;4868152;29;20036;-88
2022/09/09 02:09:10;;;;;;;74.22;32.15;;;;;;;16.63;100.00;97839.56;4869963;29;20044;-88
2022/09/09 02:11:36;;;;;;;71.68;30.98;;;;;;;16.62;100.00;97846.69;4872091;29;20499;-87
2022/09/09 02:14:12;;;;;;;65.97;29.73;;;;;;;16.67;100.00;97854.63;4870112;29;20476;-87
2022/09/09 02:16:43;;;;;;;75.47;32.13;;;;;;;16.45;100.00;97835.53;4888490;29;20482;-87
2022/09/09 02:19:14;;;;;;;75.43;31.75;;;;;;;16.49;100.00;97832.13;4888491;29;20034;-87
2022/09/09 02:21:43;;;;;;;72.97;30.25;;;;;;;16.69;100.00;97852.53;4877054;29;20092;-88
2022/09/09 02:24:12;;;;;;;61.53;29.13;;;;;;;16.69;100.00;97847.22;4911745;29;20075;-85
2022/09/09 02:26:42;;;;;;;64.72;29.88;;;;;;;16.63;100.00;97842.97;4925986;29;20091;-87
2022/09/09 02:29:18;;;;;;;69.57;31.33;;;;;;;16.70;100.00;97848.84;4905835;29;20036;-88
2022/09/09 02:31:49;;;;;;;69.43;31.42;;;;;;;16.70;100.00;97854.13;4904790;29;20452;-87
2022/09/09 02:34:17;;;;;;;79.63;31.77;;;;;;;16.55;100.00;97851.47;4903913;29;20040;-87
2022/09/09 02:36:45;;;;;;;72.05;31.92;;;;;;;16.69;100.00;97844.56;4911837;29;20388;-87
2022/09/09 02:39:12;;;;;;;67.90;32.03;;;;;;;16.64;100.00;97855.16;4886156;29;20443;-86
2022/09/09 02:41:40;;;;;;;75.05;33.72;;;;;;;16.62;100.00;97861.81;4888053;29;20032;-87
2022/09/09 02:44:18;;;;;;;70.75;31.70;;;;;;;16.63;100.00;97861.53;4905621;29;20470;-87
2022/09/09 02:47:15;;;;;;;68.43;31.35;;;;;;;16.63;100.00;97853.59;4907127;29;20032;-86
2022/09/09 02:49:50;;;;;;;62.72;29.70;;;;;;;16.55;100.00;97859.41;4889333;29;20048;-85
2022/09/09 02:52:27;;;;;;;58.72;28.23;;;;;;;16.59;100.00;97854.38;4909452;29;20048;-86
2022/09/09 02:55:01;;;;;;;65.88;30.77;;;;;;;16.52;100.00;97855.41;4905466;29;20073;-85
2022/09/09 02:57:30;;;;;;;58.17;28.27;;;;;;;16.47;100.00;97855.41;4885642;29;20039;-86
2022/09/09 02:59:58;;;;;;;56.70;28.80;;;;;;;16.44;100.00;97850.66;4906176;29;20063;-86
2022/09/09 03:02:25;;;;;;;59.15;30.33;;;;;;;16.50;100.00;97859.38;4905933;29;20479;-87
2022/09/09 03:04:51;;;;;;;60.40;29.27;;;;;;;16.48;100.00;97861.50;4902279;29;20051;-86
2022/09/09 03:07:20;;;;;;;61.22;29.73;;;;;;;16.48;100.00;97853.56;4888489;29;20029;-87
2022/09/09 03:09:46;;;;;;;58.60;29.23;;;;;;;16.45;100.00;97840.84;4906899;29;20060;-87
2022/09/09 03:12:12;;;;;;;59.85;30.05;;;;;;;16.52;100.00;97858.06;4909061;29;20036;-88
2022/09/09 03:14:38;;;;;;;67.57;30.60;;;;;;;16.50;100.00;97854.09;4906322;29;20115;-87
2022/09/09 03:17:05;;;;;;;65.28;29.80;;;;;;;16.49;100.00;97844.53;4906287;29;20028;-87
2022/09/09 03:19:31;;;;;;;59.78;29.27;;;;;;;16.44;100.00;97852.50;4886403;29;20028;-87
2022/09/09 03:21:58;;;;;;;59.58;29.70;;;;;;;16.45;100.00;97852.25;4889015;29;20084;-86
2022/09/09 03:24:25;;;;;;;57.25;29.80;;;;;;;16.46;100.00;97853.03;4891355;29;20058;-86
2022/09/09 03:26:51;;;;;;;71.93;32.60;;;;;;;16.33;100.00;97841.91;4908835;29;20036;-86
2022/09/09 03:29:18;;;;;;;63.35;31.17;;;;;;;16.21;100.00;97852.72;4886043;29;20356;-86
2022/09/09 03:31:44;;;;;;;60.25;29.75;;;;;;;16.45;100.00;97857.53;4908047;29;20032;-86
2022/09/09 03:34:10;;;;;;;70.68;32.42;;;;;;;16.42;100.00;97853.56;4889752;29;20123;-87
2022/09/09 03:36:37;;;;;;;65.22;31.52;;;;;;;16.40;100.00;97865.44;4905904;29;20039;-88
2022/09/09 03:39:03;;;;;;;64.78;29.60;;;;;;;16.36;100.00;97864.38;4905155;29;20036;-88
2022/09/09 03:41:29;;;;;;;65.88;31.58;;;;;;;16.33;100.00;97864.91;4907273;29;20032;-87
2022/09/09 03:43:55;;;;;;;64.63;30.88;;;;;;;16.38;100.00;97854.31;4903303;29;20173;-86
2022/09/09 03:46:23;;;;;;;77.75;32.30;;;;;;;16.42;100.00;97869.44;4924483;29;20538;-87
2022/09/09 03:48:49;;;;;;;64.38;30.80;;;;;;;16.30;100.00;97855.63;4888534;29;20024;-86
2022/09/09 03:51:15;;;;;;;68.32;31.35;;;;;;;16.45;100.00;97862.84;4905920;29;20043;-86
2022/09/09 03:53:42;;;;;;;67.03;30.60;;;;;;;16.37;100.00;97866.78;4875254;29;20394;-85
2022/09/09 03:56:09;;;;;;;59.22;28.42;;;;;;;16.40;100.00;97868.91;4906884;29;20043;-86
2022/09/09 03:58:36;;;;;;;59.15;30.30;;;;;;;16.38;100.00;97863.09;4899500;29;20032;-85
2022/09/09 04:01:10;;;;;;;60.58;30.77;;;;;;;16.45;100.00;97864.69;4904266;29;20084;-86
2022/09/09 04:03:35;;;;;;;53.83;28.55;;;;;;;16.38;100.00;97868.38;4905922;29;20044;-86
2022/09/09 04:06:03;;;;;;;56.08;28.55;;;;;;;16.36;100.00;97877.63;4922722;29;20050;-85
2022/09/09 04:08:31;;;;;;;60.42;27.50;;;;;;;16.22;100.00;97869.38;4904148;29;20509;-85
2022/09/09 04:10:57;;;;;;;45.58;25.05;;;;;;;16.29;100.00;97875.22;4885725;29;20032;-86
2022/09/09 04:13:24;;;;;;;51.55;25.83;;;;;;;16.24;100.00;97867.28;4907850;29;20122;-86
2022/09/09 04:15:54;;;;;;;50.72;25.55;;;;;;;16.31;100.00;97873.13;4903550;29;20386;-85
2022/09/09 04:18:20;;;;;;;54.42;27.80;;;;;;;16.13;100.00;97867.25;4903390;29;20029;-86
2022/09/09 04:20:47;;;;;;;47.00;26.02;;;;;;;16.27;100.00;97861.44;4904963;29;20482;-86
2022/09/09 04:23:13;;;;;;;48.95;24.80;;;;;;;16.31;100.00;97867.84;4909258;29;20076;-86
2022/09/09 04:25:44;;;;;;;48.08;25.13;;;;;;;16.39;100.00;97872.63;4886860;29;20057;-87
2022/09/09 04:28:10;;;;;;;44.63;24.38;;;;;;;16.23;100.00;97871.78;4884986;29;20021;-85
2022/09/09 04:30:35;;;;;;;39.40;22.15;;;;;;;16.33;100.00;97872.88;4908572;29;20092;-86
2022/09/09 04:33:01;;;;;;;45.25;24.58;;;;;;;16.38;100.00;97884.25;4859830;29;20475;-86
2022/09/09 04:35:27;;;;;;;41.42;22.92;;;;;;;16.39;100.00;97885.84;4889026;29;20029;-86
2022/09/09 04:37:52;;;;;;;40.10;24.27;;;;;;;16.36;100.00;97881.09;4889308;29;20065;-86
2022/09/09 04:40:18;;;;;;;41.90;23.98;;;;;;;16.33;100.00;97881.63;4892181;29;20043;-88
2022/09/09 04:42:43;;;;;;;44.40;23.65;;;;;;;16.41;100.00;97873.16;4892050;29;20080;-87
2022/09/09 04:45:11;;;;;;;42.17;24.17;;;;;;;16.47;100.00;97883.75;4871475;29;20047;-85
2022/09/09 04:47:37;;;;;;;43.42;22.38;;;;;;;16.44;100.00;97887.72;4889645;29;20119;-87
2022/09/09 04:50:02;;;;;;;43.10;23.23;;;;;;;16.45;100.00;97883.22;4887260;29;20373;-86
2022/09/09 04:52:28;;;;;;;43.08;25.02;;;;;;;16.44;100.00;97877.13;4876045;29;20044;-86
2022/09/09 04:54:53;;;;;;;48.60;24.88;;;;;;;16.26;100.00;97875.75;4872915;29;20041;-86
2022/09/09 04:57:19;;;;;;;47.90;25.02;;;;;;;16.42;100.00;97893.28;4891872;29;20060;-86
2022/09/09 04:59:45;;;;;;;48.97;25.38;;;;;;;16.41;100.00;97899.63;4862890;29;20291;-86
2022/09/09 05:02:11;;;;;;;43.10;24.40;;;;;;;16.32;100.00;97879.22;4870812;29;20041;-86
2022/09/09 05:04:37;;;;;;;47.60;27.10;;;;;;;16.29;100.00;97885.81;4894020;29;20037;-87
2022/09/09 05:07:02;;;;;;;52.85;27.20;;;;;;;16.36;100.00;97888.22;4892139;29;20024;-87
2022/09/09 05:09:28;;;;;;;42.83;23.95;;;;;;;16.40;100.00;97903.34;4872972;29;20453;-86
2022/09/09 05:11:54;;;;;;;49.10;26.55;;;;;;;16.31;100.00;97894.31;4889984;29;20382;-87
2022/09/09 05:14:20;;;;;;;52.17;28.70;;;;;;;16.24;100.00;97899.84;4891451;29;20603;-87
2022/09/09 05:16:46;;;;;;;48.85;26.00;;;;;;;16.30;100.00;97903.28;4888403;29;20124;-85
2022/09/09 05:19:12;;;;;;;52.70;28.27;;;;;;;16.30;100.00;97902.50;4892200;29;20036;-86
2022/09/09 05:21:40;;;;;;;53.30;28.25;;;;;;;16.27;100.00;97898.53;4882980;29;20043;-85
2022/09/09 05:24:06;;;;;;;49.40;26.90;;;;;;;16.26;100.00;97904.88;4907955;29;20119;-86
2022/09/09 05:26:32;;;;;;;58.83;27.70;;;;;;;16.20;100.00;97908.56;4908276;29;20184;-85
2022/09/09 05:29:00;;;;;;;45.72;25.25;;;;;;;16.35;100.00;97910.47;4906530;29;20083;-85
2022/09/09 05:31:27;;;;;;;47.72;25.67;;;;;;;16.35;100.00;97913.91;4910370;29;20039;-85
2022/09/09 05:33:53;;;;;;;51.05;25.75;;;;;;;16.27;100.00;97909.13;4908161;29;20118;-86
2022/09/09 05:36:21;;;;;;;56.72;27.38;;;;;;;16.24;100.00;97909.63;4906672;29;20089;-85
2022/09/09 05:38:47;;;;;;;62.83;27.52;;;;;;;16.18;100.00;97897.44;4908872;29;20050;-85
2022/09/09 05:41:17;;;;;;;44.53;24.65;;;;;;;16.16;100.00;97907.50;4909545;29;20039;-87
2022/09/09 05:43:44;;;;;;;44.10;24.55;;;;;;;16.36;100.00;97920.81;4907777;29;20095;-86
2022/09/09 05:46:14;;;;;;;43.45;25.10;;;;;;;16.48;100.00;97922.41;4908378;29;20035;-87
2022/09/09 05:48:42;;;;;;;47.70;26.73;;;;;;;16.44;100.00;97918.69;4905758;29;20037;-86
2022/09/09 05:51:15;;;;;;;45.08;25.35;;;;;;;16.47;100.00;97915.53;4889445;29;20122;-87
2022/09/09 05:53:41;;;;;;;49.08;25.13;;;;;;;16.44;100.00;97910.75;4905748;29;20045;-87
2022/09/09 05:56:28;;;;;;;44.60;26.50;;;;;;;16.52;100.00;97915.56;4911861;29;20039;-88
2022/09/09 05:58:54;;;;;;;53.13;26.85;;;;;;;16.45;100.00;97929.06;4890731;29;20036;-88
2022/09/09 06:01:31;;;;;;;56.13;27.10;;;;;;;16.49;100.00;97921.34;4908504;29;20036;-87
2022/09/09 06:03:57;;;;;;;49.40;26.17;;;;;;;16.40;100.00;97929.81;4926141;29;20036;-87
2022/09/09 06:06:30;;;;;;;63.17;28.92;;;;;;;16.60;100.00;97933.59;4909542;29;20044;-87
2022/09/09 06:08:57;;;;;;;39.80;20.80;;;;;;;16.45;100.00;97936.19;4919880;29;20574;-86
2022/09/09 06:11:26;;;;;;;58.13;28.55;;;;;;;16.72;100.00;97946.59;4910887;29;20040;-87
2022/09/09 06:13:53;;;;;;;59.90;28.20;;;;;;;16.60;100.00;97941.53;4907869;29;20533;-86
2022/09/09 06:16:23;;;;;;;52.85;28.98;;;;;;;16.71;100.00;97950.31;4909589;29;20422;-86
2022/09/09 06:18:50;;;;;;;54.88;27.17;;;;;;;16.71;100.00;97939.69;4888693;29;20513;-86
2022/09/09 06:21:21;;;;;;;50.10;25.58;;;;;;;16.82;100.00;97945.81;4910071;29;20562;-86
2022/09/09 06:23:48;;;;;;;54.55;28.10;;;;;;;16.83;100.00;97948.22;4905327;29;20036;-86
2022/09/09 06:26:18;;;;;;;54.45;28.65;;;;;;;16.91;100.00;97943.44;4901432;29;20036;-87
2022/09/09 06:28:49;;;;;;;58.45;28.55;;;;;;;16.91;100.00;97938.16;4908134;29;20402;-88
2022/09/09 06:31:17;;;;;;;47.80;24.98;;;;;;;17.04;100.00;97952.78;4921530;29;20494;-88
2022/09/09 06:33:44;;;;;;;49.90;26.25;;;;;;;17.11;100.00;97953.31;4887705;29;20067;-86
2022/09/09 06:36:19;;;;;;;48.63;27.45;;;;;;;17.22;100.00;97964.72;4904618;29;20043;-85
2022/09/09 06:38:45;;;;;;;49.10;27.30;;;;;;;17.16;100.00;97961.28;4906572;29;20040;-87
2022/09/09 06:41:13;;;;;;;49.40;26.90;;;;;;;17.18;100.00;97964.44;4908036;29;20509;-85
2022/09/09 06:43:40;;;;;;;55.03;27.95;;;;;;;17.11;100.00;97958.63;4903107;29;20384;-85
2022/09/09 06:46:27;;;;;;;48.67;26.08;;;;;;;17.35;100.00;97963.41;4910136;29;20044;-85
2022/09/09 06:48:59;;;;;;;48.63;28.00;;;;;;;17.39;100.00;97959.97;4903741;29;20475;-87
2022/09/09 06:51:37;;;;;;;54.50;28.15;;;;;;;17.36;100.00;97960.47;4906606;29;20043;-86
2022/09/09 06:54:04;;;;;;;44.65;25.02;;;;;;;17.09;100.00;97955.41;4904498;29;20382;-85
2022/09/09 06:56:32;;;;;;;44.92;24.35;;;;;;;17.14;100.00;97968.69;4903811;29;20115;-85
2022/09/09 06:59:03;;;;;;;44.10;23.65;;;;;;;17.27;100.00;97960.19;4908933;29;20493;-85
2022/09/09 07:01:32;;;;;;;44.00;25.55;;;;;;;17.32;100.00;97961.28;4906447;29;20024;-85
2022/09/09 07:03:58;;;;;;;46.95;24.83;;;;;;;17.38;100.00;97960.22;4901280;29;20028;-85
2022/09/09 07:06:30;;;;;;;48.50;24.90;;;;;;;17.56;100.00;97967.63;4907529;29;20107;-84
2022/09/09 07:08:58;;;;;;;48.58;24.95;;;;;;;17.61;100.00;97980.09;4923758;29;20028;-85
2022/09/09 07:11:29;;;;;;;43.28;23.65;;;;;;;17.60;100.00;97975.06;4906901;29;20039;-84
2022/09/09 07:13:57;;;;;;;40.10;22.85;;;;;;;17.49;100.00;97976.91;4908446;29;20032;-85
2022/09/09 07:16:24;;;;;;;42.70;24.33;;;;;;;17.25;100.00;97991.50;4909836;29;20035;-85
2022/09/09 07:18:50;;;;;;;39.25;22.52;;;;;;;17.39;100.00;97989.13;4888884;29;20033;-85
2022/09/09 07:21:17;;;;;;;40.00;21.95;;;;;;;17.31;100.00;97987.00;4906449;29;20455;-84
2022/09/09 07:23:43;;;;;;;39.05;23.70;;;;;;;17.20;100.00;97988.84;4888381;29;20040;-85
2022/09/09 07:26:17;;;;;;;41.05;22.92;;;;;;;17.33;100.00;97987.53;4871223;29;20367;-84
2022/09/09 07:28:43;;;;;;;42.15;22.80;;;;;;;17.34;100.00;97980.38;4886074;29;20383;-84
2022/09/09 07:31:21;;;;;;;45.25;24.75;;;;;;;17.26;100.00;97993.09;4887751;29;20039;-85
2022/09/09 07:33:48;;;;;;;44.90;23.02;;;;;;;17.33;100.00;97995.47;4888288;29;20036;-84
2022/09/09 07:36:23;;;;;;;38.38;21.98;;;;;;;17.28;100.00;97985.66;4869752;29;20056;-83
2022/09/09 07:38:51;;;;;;;43.95;24.13;;;;;;;17.26;100.00;97992.31;4889357;29;20037;-84
2022/09/09 07:41:26;;;;;;;41.60;22.20;;;;;;;17.39;100.00;98002.41;4887732;29;20032;-85
2022/09/09 07:43:55;;;;;;;40.58;22.27;;;;;;;17.33;100.00;98000.00;4855610;29;20037;-85
2022/09/09 07:46:23;;;;;;;43.15;23.73;;;;;;;17.28;100.00;98001.56;4901529;29;20028;-85
2022/09/09 07:48:52;;;;;;;41.30;23.27;;;;;;;17.40;100.00;97992.56;4882537;29;20108;-85
2022/09/09 07:51:22;;;;;;;40.85;23.40;;;;;;;17.42;100.00;97995.75;4887170;29;20044;-84
2022/09/09 07:53:52;;;;;;;40.53;23.20;;;;;;;17.45;100.00;98021.75;4887023;29;20037;-84
2022/09/09 07:56:18;;;;;;;44.08;22.60;;;;;;;17.50;100.00;98013.81;4891313;29;20035;-85
2022/09/09 07:58:46;;;;;;;45.90;22.80;;;;;;;17.49;100.00;98028.13;4870827;29;20041;-84
2022/09/09 08:01:17;;;;;;;38.00;21.33;;;;;;;17.64;100.00;98032.66;4873515;29;20029;-84
2022/09/09 08:03:45;;;;;;;38.67;20.77;;;;;;;17.75;100.00;98020.16;4889604;29;20088;-83
2022/09/09 08:06:12;;;;;;;36.33;19.90;;;;;;;17.68;100.00;98014.31;4873074;29;20032;-84
2022/09/09 08:08:38;;;;;;;32.88;18.98;;;;;;;17.85;100.00;98022.78;4906515;29;20025;-84
2022/09/09 08:11:07;;;;;;;32.97;19.13;;;;;;;17.98;100.00;98028.63;4889733;29;20098;-84
2022/09/09 08:13:34;;;;;;;32.90;19.98;;;;;;;17.88;100.00;98018.81;4876196;29;20032;-84
2022/09/09 08:16:07;;;;;;;30.50;18.40;;;;;;;18.01;100.00;98036.06;4887310;29;20053;-84
2022/09/09 08:18:33;;;;;;;29.08;17.80;;;;;;;17.85;100.00;98035.28;4889688;29;20040;-84
2022/09/09 08:21:15;;;;;;;31.05;17.15;;;;;;;17.66;100.00;98022.56;4889216;29;20037;-86
2022/09/09 08:23:41;;;;;;;37.90;18.35;;;;;;;17.80;100.00;98033.41;4856506;29;20497;-86
2022/09/09 08:26:12;;;;;;;36.03;19.27;;;;;;;18.08;100.00;98044.59;4886396;29;20479;-85
2022/09/09 08:28:39;;;;;;;29.55;16.55;;;;;;;18.07;100.00;98042.97;4891287;29;20044;-86
2022/09/09 08:31:13;;;;;;;20.63;14.13;;;;;;;18.02;100.00;98050.94;4870089;29;21568;-85
2022/09/09 08:33:39;;;;;;;25.73;15.40;;;;;;;17.92;100.00;98043.75;4870046;29;20123;-86
2022/09/09 08:36:06;;;;;;;24.25;14.43;;;;;;;17.92;100.00;98037.66;4894065;29;20040;-84
2022/09/09 08:38:33;;;;;;;27.65;14.52;;;;;;;17.99;100.00;98051.47;4906474;29;20368;-85
2022/09/09 08:41:12;;;;;;;29.58;14.98;;;;;;;18.08;100.00;98049.91;4889517;29;20028;-85
2022/09/09 08:43:39;;;;;;;27.83;15.00;;;;;;;18.33;100.00;98048.25;4891926;29;20477;-84
2022/09/09 08:46:33;;;;;;;23.00;14.38;;;;;;;18.58;100.00;98056.41;4893634;29;20091;-86
2022/09/09 08:49:42;;;;;;;18.02;13.27;;;;;;;18.83;100.00;98055.50;4889577;29;20060;-87
2022/09/09 08:52:36;;;;;;;19.35;12.40;;;;;;;18.71;100.00;98069.09;4866594;29;20105;-85
2022/09/09 08:55:29;;;;;;;22.65;13.50;;;;;;;18.50;100.00;98071.03;4888391;29;20036;-84
2022/09/09 08:58:00;;;;;;;22.67;11.98;;;;;;;18.32;100.00;98064.44;4870535;29;20057;-85
2022/09/09 09:00:42;;;;;;;18.95;11.90;;;;;;;18.23;100.00;98078.28;4886165;29;20497;-86
2022/09/09 09:03:24;;;;;;;18.35;11.95;;;;;;;18.20;100.00;98080.66;4874387;29;20037;-84
2022/09/09 09:06:05;;;;;;;21.58;12.23;;;;;;;18.55;100.00;98079.78;4883880;29;20039;-84
2022/09/09 09:08:51;;;;;;;20.08;11.57;;;;;;;18.48;100.00;98084.59;4871173;29;20123;-85
2022/09/09 09:11:17;;;;;;;15.90;10.68;;;;;;;18.56;100.00;98081.38;4890083;29;20558;-84
2022/09/09 09:13:54;;;;;;;19.13;9.95;;;;;;;18.95;100.00;98082.56;4871740;29;20072;-84
2022/09/09 09:16:32;;;;;;;19.60;9.73;;;;;;;19.06;100.00;98082.53;4885865;29;20143;-85
2022/09/09 09:18:59;;;;;;;10.68;8.38;;;;;;;19.02;100.00;98076.16;4853085;29;20153;-85
2022/09/09 09:21:40;;;;;;;11.18;7.07;;;;;;;19.10;100.00;98091.56;4889469;29;20074;-85
2022/09/09 09:24:20;;;;;;;10.20;6.50;;;;;;;19.44;100.00;98077.53;4868952;29;20053;-84
2022/09/09 09:26:45;;;;;;;10.27;7.15;;;;;;;19.44;100.00;98074.84;4889407;29;20032;-85
2022/09/09 09:29:15;;;;;;;10.48;6.40;;;;;;;19.74;100.00;98091.69;4875563;29;20055;-84
2022/09/09 09:31:50;;;;;;;12.27;6.80;;;;;;;19.93;100.00;98088.38;4888365;29;20036;-85
2022/09/09 09:34:17;;;;;;;16.73;7.63;;;;;;;19.75;100.00;98089.81;4889916;29;20538;-85
2022/09/09 09:36:46;;;;;;;11.57;7.38;;;;;;;19.77;100.00;98101.00;4872561;29;20070;-85
2022/09/09 09:39:38;;;;;;;13.02;7.18;;;;;;;19.86;100.00;98104.66;4902780;29;20033;-84
2022/09/09 09:42:14;;;;;;;13.15;6.32;;;;;;;19.79;100.00;98099.63;4883942;29;20033;-85
2022/09/09 09:44:41;;;;;;;11.38;4.90;;;;;;;19.84;100.00;98117.44;4887852;29;20036;-85
2022/09/09 09:47:15;;;;;;;8.90;4.95;;;;;;;19.68;100.00;98108.78;4889817;29;20029;-84
2022/09/09 09:49:53;;;;;;;12.70;4.90;;;;;;;19.74;100.00;98120.97;4888046;29;20033;-84
2022/09/09 09:52:23;;;;;;;8.50;4.00;;;;;;;19.53;100.00;98118.47;4871042;29;20029;-85
2022/09/09 09:54:50;;;;;;;7.15;4.35;;;;;;;19.67;100.00;98118.63;4887536;29;20056;-84
2022/09/09 09:57:17;;;;;;;7.85;4.15;;;;;;;19.81;100.00;98113.47;4890624;29;20037;-85
2022/09/09 09:59:43;;;;;;;8.68;4.40;;;;;;;19.72;100.00;98125.78;4886712;29;20041;-85
2022/09/09 10:02:20;;;;;;;7.18;4.25;;;;;;;19.66;100.00;98132.22;4873555;29;20395;-85
2022/09/09 10:04:47;;;;;;;8.07;4.68;;;;;;;19.54;100.00;98124.56;4887596;29;20041;-85
2022/09/09 10:07:18;;;;;;;8.60;4.55;;;;;;;19.45;100.00;98118.25;4889273;29;20071;-86
2022/09/09 10:09:44;;;;;;;4.65;4.13;;;;;;;19.58;100.00;98130.13;4888141;29;20062;-85
2022/09/09 10:12:28;;;;;;;8.32;4.45;;;;;;;19.79;100.00;98131.59;4869401;29;20096;-87
2022/09/09 10:15:31;;;;;;;7.70;4.32;;;;;;;19.90;100.00;98126.19;4869711;29;20033;-85
2022/09/09 10:18:18;;;;;;;13.00;5.18;;;;;;;19.83;100.00;98127.28;4889121;29;20036;-86
2022/09/09 10:20:47;;;;;;;5.97;4.07;;;;;;;19.93;100.00;98128.31;4856957;29;20097;-86
2022/09/09 10:23:28;;;;;;;11.43;4.78;;;;;;;19.87;100.00;98126.75;4899031;29;20064;-85
2022/09/09 10:26:06;;;;;;;9.80;6.45;;;;;;;19.68;100.00;98127.41;4909026;29;20044;-85
2022/09/09 10:29:00;;;;;;;11.80;5.53;;;;;;;19.51;100.00;98127.78;4903526;29;20025;-87
2022/09/09 10:31:39;;;;;;;13.23;5.65;;;;;;;19.54;100.00;98135.22;4906547;29;20032;-86
2022/09/09 10:34:24;;;;;;;8.93;4.63;;;;;;;19.67;100.00;98131.94;4887383;29;20037;-85
2022/09/09 10:36:50;;;;;;;7.10;5.18;;;;;;;19.67;100.00;98117.84;4907358;29;20033;-85
2022/09/09 10:39:36;;;;;;;8.20;4.72;;;;;;;20.15;100.00;98127.06;4902592;29;20542;-86
2022/09/09 10:42:07;;;;;;;9.80;4.72;;;;;;;20.11;100.00;98116.19;4904465;29;20032;-85
2022/09/09 10:45:06;;;;;;;11.32;4.40;;;;;;;20.27;100.00;98132.84;4888678;29;20055;-85
2022/09/09 10:47:49;;;;;;;9.55;4.30;;;;;;;20.35;100.00;98124.22;4903974;29;20028;-86
2022/09/09 10:50:42;;;;;;;6.85;3.67;;;;;;;20.40;100.00;98124.16;4903119;29;20099;-86
2022/09/09 10:53:18;;;;;;;11.70;4.20;;;;;;;20.53;100.00;98133.34;4902478;29;20050;-86
2022/09/09 10:55:48;;;;;;;11.15;4.05;;;;;;;20.62;100.00;98130.88;4906500;29;20066;-85
2022/09/09 10:58:23;;;;;;;9.35;4.55;;;;;;;20.68;100.00;98135.09;4890731;29;20036;-85
2022/09/09 11:00:57;;;;;;;7.95;4.07;;;;;;;20.70;100.00;98137.47;4908745;29;20032;-86
2022/09/09 11:03:33;;;;;;;8.65;3.90;;;;;;;20.80;100.00;98132.06;4907650;29;20032;-86
2022/09/09 11:06:09;;;;;;;7.78;3.83;;;;;;;20.49;100.00;98137.69;4902819;29;20036;-85
2022/09/09 11:08:39;;;;;;;10.07;4.22;;;;;;;20.45;100.00;98136.66;4888873;29;20105;-86
2022/09/09 11:11:04;;;;;;;9.20;4.22;;;;;;;20.49;100.00;98142.22;4905465;29;20086;-86
2022/09/09 11:13:48;;;;;;;6.05;4.00;;;;;;;20.69;100.00;98139.34;4899846;29;20052;-85
2022/09/09 11:16:25;;;;;;;9.70;4.22;;;;;;;20.81;100.00;98127.50;4906585;29;20110;-87
2022/09/09 11:18:57;;;;;;;5.63;3.50;;;;;;;20.95;100.00;98125.75;4917835;29;20037;-86
2022/09/09 11:21:30;;;;;;;6.88;3.40;;;;;;;21.04;100.00;98133.91;4887200;29;20099;-86
2022/09/09 11:24:02;;;;;;;9.55;4.25;;;;;;;21.32;100.00;98128.75;4906589;29;20115;-86
2022/09/09 11:26:45;;;;;;;8.07;3.20;;;;;;;21.73;100.00;98130.06;4907034;29;20032;-86
2022/09/09 11:29:47;;;;;;;9.43;3.15;;;;;;;22.31;100.00;98137.97;4906071;29;20040;-86
2022/09/09 11:32:24;;;;;;;5.30;3.58;;;;;;;22.81;100.00;98132.75;4900528;29;20032;-86
2022/09/09 11:35:32;;;;;;;8.07;3.28;;;;;;;23.51;100.00;98135.34;4888937;29;20035;-85